createdAt,value
2023-05-06T00:00:44.848Z,12.27
2023-05-06T00:03:12.244Z,14.80
2023-05-06T00:05:39.543Z,17.43
2023-05-06T00:08:06.908Z,15.23
2023-05-06T00:10:34.214Z,14.90
2023-05-06T00:13:01.492Z,16.53
2023-05-06T00:15:32.030Z,14.27
2023-05-06T00:17:59.632Z,13.60
2023-05-06T00:20:27.035Z,15.00
2023-05-06T00:22:54.360Z,14.10
2023-05-06T00:25:21.685Z,14.87
2023-05-06T00:27:49.035Z,13.67
2023-05-06T00:30:16.265Z,13.77
2023-05-06T00:32:44.951Z,14.77
2023-05-06T00:35:13.663Z,14.87
2023-05-06T00:37:40.936Z,13.93
2023-05-06T00:40:09.123Z,17.27
2023-05-06T00:42:36.570Z,13.83
2023-05-06T00:45:03.930Z,14.77
2023-05-06T00:47:31.198Z,13.57
2023-05-06T00:49:59.813Z,13.33
2023-05-06T00:52:27.169Z,13.93
2023-05-06T00:54:54.517Z,12.73
2023-05-06T00:57:21.760Z,14.10
2023-05-06T00:59:49.006Z,14.10
2023-05-06T01:02:16.441Z,14.40
2023-05-06T01:04:43.759Z,13.63
2023-05-06T01:07:17.610Z,16.53
2023-05-06T01:09:48.202Z,13.63
2023-05-06T01:12:17.933Z,11.83
2023-05-06T01:14:50.428Z,13.30
2023-05-06T01:17:19.308Z,12.60
2023-05-06T01:19:49.353Z,12.83
2023-05-06T01:22:19.119Z,13.37
2023-05-06T01:24:47.779Z,12.73
2023-05-06T01:27:15.372Z,13.50
2023-05-06T01:29:43.278Z,12.47
2023-05-06T01:32:18.136Z,13.53
2023-05-06T01:34:49.997Z,10.93
2023-05-06T01:37:20.378Z,13.03
2023-05-06T01:39:49.758Z,11.80
2023-05-06T01:42:17.407Z,11.93
2023-05-06T01:44:44.848Z,13.27
2023-05-06T01:47:12.659Z,12.93
2023-05-06T01:49:40.388Z,12.27
2023-05-06T01:52:07.614Z,12.53
2023-05-06T01:54:34.923Z,11.60
2023-05-06T01:57:03.744Z,14.03
2023-05-06T01:59:30.985Z,14.57
2023-05-06T02:01:58.310Z,11.93
2023-05-06T02:04:25.588Z,11.93
2023-05-06T02:06:53.178Z,13.33
2023-05-06T02:09:20.677Z,14.20
2023-05-06T02:11:54.081Z,13.47
2023-05-06T02:14:22.798Z,15.70
2023-05-06T02:16:50.319Z,13.47
2023-05-06T02:19:17.992Z,14.17
2023-05-06T02:21:45.365Z,13.67
2023-05-06T02:24:12.688Z,14.10
2023-05-06T02:26:39.900Z,12.90
2023-05-06T02:29:07.156Z,13.97
2023-05-06T02:31:35.834Z,12.03
2023-05-06T02:34:03.138Z,12.40
2023-05-06T02:36:30.432Z,12.93
2023-05-06T02:38:57.752Z,12.43
2023-05-06T02:41:25.076Z,12.27
2023-05-06T02:43:52.666Z,11.50
2023-05-06T02:46:20.085Z,13.40
2023-05-06T02:48:48.748Z,12.73
2023-05-06T02:51:16.013Z,13.23
2023-05-06T02:53:43.261Z,12.40
2023-05-06T02:56:10.510Z,13.27
2023-05-06T02:58:37.820Z,14.43
2023-05-06T03:01:05.173Z,11.27
2023-05-06T03:03:32.565Z,12.50
2023-05-06T03:06:01.283Z,13.33
2023-05-06T03:08:28.590Z,12.70
2023-05-06T03:10:56.264Z,11.93
2023-05-06T03:13:23.846Z,14.27
2023-05-06T03:15:54.685Z,12.30
2023-05-06T03:18:22.416Z,11.57
2023-05-06T03:20:50.418Z,12.23
2023-05-06T03:23:20.032Z,11.87
2023-05-06T03:25:47.784Z,11.10
2023-05-06T03:28:15.376Z,11.82
2023-05-06T03:30:45.061Z,12.80
2023-05-06T03:33:12.664Z,12.67
2023-05-06T03:35:40.015Z,11.83
2023-05-06T03:38:07.355Z,12.97
2023-05-06T03:40:45.941Z,13.60
2023-05-06T03:43:15.195Z,11.83
2023-05-06T03:45:44.017Z,10.97
2023-05-06T03:48:11.518Z,12.23
2023-05-06T03:50:42.252Z,12.67
2023-05-06T03:53:09.558Z,13.67
2023-05-06T03:55:39.862Z,11.20
2023-05-06T03:58:08.587Z,15.33
2023-05-06T04:00:35.983Z,12.93
2023-05-06T04:03:03.345Z,14.13
2023-05-06T04:05:38.150Z,12.23
2023-05-06T04:08:05.987Z,12.63
2023-05-06T04:10:33.400Z,15.00
2023-05-06T04:13:06.777Z,17.10
2023-05-06T04:15:41.623Z,13.57
2023-05-06T04:18:12.705Z,13.93
2023-05-06T04:20:42.260Z,15.43
2023-05-06T04:23:09.549Z,15.03
2023-05-06T04:25:36.865Z,12.73
2023-05-06T04:28:04.767Z,13.77
2023-05-06T04:30:32.159Z,14.67
2023-05-06T04:33:00.887Z,12.97
2023-05-06T04:35:28.398Z,12.63
2023-05-06T04:37:57.553Z,13.70
2023-05-06T04:40:29.489Z,12.70
2023-05-06T04:42:56.857Z,12.10
2023-05-06T04:45:27.265Z,12.77
2023-05-06T04:47:55.440Z,13.73
2023-05-06T04:50:24.070Z,15.85
2023-05-06T04:52:52.826Z,13.67
2023-05-06T04:55:21.382Z,13.73
2023-05-06T04:57:52.314Z,13.40
2023-05-06T05:00:19.760Z,12.73
2023-05-06T05:02:47.233Z,14.60
2023-05-06T05:05:16.619Z,13.23
2023-05-06T05:07:47.868Z,14.33
2023-05-06T05:10:15.542Z,15.40
2023-05-06T05:12:43.261Z,13.20
2023-05-06T05:15:11.818Z,13.83
2023-05-06T05:17:39.815Z,14.73
2023-05-06T05:20:08.225Z,18.40
2023-05-06T05:22:36.551Z,13.97
2023-05-06T05:25:07.920Z,17.33
2023-05-06T05:27:35.925Z,14.63
2023-05-06T05:30:03.252Z,17.47
2023-05-06T05:32:32.948Z,16.00
2023-05-06T05:35:00.213Z,18.40
2023-05-06T05:37:27.461Z,17.27
2023-05-06T05:39:54.825Z,15.37
2023-05-06T05:42:23.922Z,17.13
2023-05-06T05:44:51.358Z,15.23
2023-05-06T05:47:19.760Z,15.90
2023-05-06T05:49:47.105Z,18.97
2023-05-06T05:52:14.543Z,16.17
2023-05-06T05:54:42.765Z,16.10
2023-05-06T05:57:10.070Z,16.30
2023-05-06T05:59:39.730Z,18.00
2023-05-06T06:02:07.683Z,14.73
2023-05-06T06:04:35.068Z,15.97
2023-05-06T06:07:03.946Z,16.97
2023-05-06T06:09:35.418Z,15.73
2023-05-06T06:12:04.556Z,19.13
2023-05-06T06:14:34.594Z,14.97
2023-05-06T06:17:03.421Z,19.27
2023-05-06T06:19:30.729Z,18.27
2023-05-06T06:21:58.310Z,21.73
2023-05-06T06:24:25.911Z,20.03
2023-05-06T06:26:53.320Z,21.00
2023-05-06T06:29:20.615Z,18.43
2023-05-06T06:31:47.972Z,21.13
2023-05-06T06:34:16.655Z,22.13
2023-05-06T06:36:44.070Z,19.70
2023-05-06T06:39:11.407Z,29.73
2023-05-06T06:41:38.729Z,21.13
2023-05-06T06:44:06.117Z,19.37
2023-05-06T06:46:33.449Z,24.23
2023-05-06T06:49:00.846Z,24.13
2023-05-06T06:51:29.498Z,26.13
2023-05-06T06:53:56.815Z,28.27
2023-05-06T06:56:24.427Z,28.10
2023-05-06T06:58:53.273Z,32.37
2023-05-06T07:01:20.868Z,27.23
2023-05-06T07:03:48.444Z,40.10
2023-05-06T07:06:15.733Z,27.57
2023-05-06T07:08:44.359Z,28.23
2023-05-06T07:11:12.254Z,22.77
2023-05-06T07:13:39.481Z,26.47
2023-05-06T07:16:06.869Z,25.43
2023-05-06T07:18:34.185Z,18.73
2023-05-06T07:21:01.434Z,16.97
2023-05-06T07:23:30.489Z,16.40
2023-05-06T07:26:00.557Z,17.57
2023-05-06T07:28:27.793Z,21.17
2023-05-06T07:30:55.225Z,20.07
2023-05-06T07:33:22.480Z,20.07
2023-05-06T07:35:49.815Z,19.53
2023-05-06T07:38:17.036Z,14.40
2023-05-06T07:40:44.256Z,18.97
2023-05-06T07:43:12.832Z,18.00
2023-05-06T07:45:40.076Z,15.50
2023-05-06T07:48:07.428Z,20.10
2023-05-06T07:50:34.750Z,24.37
2023-05-06T07:53:02.015Z,22.87
2023-05-06T07:55:29.330Z,17.63
2023-05-06T07:57:56.574Z,16.60
2023-05-06T08:00:25.233Z,15.33
2023-05-06T08:02:52.708Z,15.33
2023-05-06T08:05:20.130Z,20.97
2023-05-06T08:07:47.413Z,21.20
2023-05-06T08:10:14.748Z,17.53
2023-05-06T08:12:42.126Z,20.40
2023-05-06T08:15:10.550Z,19.13
2023-05-06T08:17:39.378Z,19.03
2023-05-06T08:20:07.202Z,19.00
2023-05-06T08:22:34.581Z,18.00
2023-05-06T08:25:02.000Z,22.07
2023-05-06T08:27:29.382Z,22.33
2023-05-06T08:29:57.117Z,19.83
2023-05-06T08:32:24.565Z,19.97
2023-05-06T08:34:53.290Z,11.33
2023-05-06T08:37:20.656Z,17.70
2023-05-06T08:39:48.179Z,21.47
2023-05-06T08:42:15.532Z,15.93
2023-05-06T08:44:43.736Z,21.03
2023-05-06T08:47:11.162Z,11.40
2023-05-06T08:49:38.404Z,16.43
2023-05-06T08:52:07.137Z,14.87
2023-05-06T08:54:34.989Z,11.57
2023-05-06T08:57:04.099Z,17.70
2023-05-06T08:59:31.485Z,18.43
2023-05-06T09:01:58.835Z,15.67
2023-05-06T09:04:26.217Z,16.00
2023-05-06T09:06:53.525Z,16.77
2023-05-06T09:09:22.336Z,9.10
2023-05-06T09:11:49.669Z,14.07
2023-05-06T09:14:18.004Z,17.50
2023-05-06T09:16:46.370Z,15.87
2023-05-06T09:19:14.350Z,11.90
2023-05-06T09:21:42.770Z,12.63
2023-05-06T09:24:10.538Z,11.57
2023-05-06T09:26:40.034Z,9.80
2023-05-06T09:29:07.584Z,13.30
2023-05-06T09:31:40.426Z,13.13
2023-05-06T09:34:07.723Z,11.87
2023-05-06T09:36:34.987Z,19.20
2023-05-06T09:39:02.267Z,10.77
2023-05-06T09:41:29.890Z,9.93
2023-05-06T09:43:58.487Z,16.43
2023-05-06T09:46:26.217Z,8.17
2023-05-06T09:48:54.019Z,10.10
2023-05-06T09:51:21.593Z,11.30
2023-05-06T09:53:49.029Z,10.93
2023-05-06T09:56:16.693Z,11.37
2023-05-06T09:58:44.357Z,10.50
2023-05-06T10:01:15.148Z,9.23
2023-05-06T10:03:47.136Z,10.20
2023-05-06T10:06:14.790Z,10.17
2023-05-06T10:08:42.445Z,13.30
2023-05-06T10:11:10.503Z,8.27
2023-05-06T10:13:39.593Z,6.83
2023-05-06T10:16:07.981Z,10.73
2023-05-06T10:18:37.844Z,14.73
2023-05-06T10:21:08.119Z,31.53
2023-05-06T10:23:38.583Z,11.30
2023-05-06T10:26:07.583Z,18.83
2023-05-06T10:28:36.981Z,12.23
2023-05-06T10:31:05.215Z,12.73
2023-05-06T10:33:32.485Z,19.33
2023-05-06T10:36:08.306Z,15.20
2023-05-06T10:38:37.128Z,12.80
2023-05-06T10:41:04.695Z,12.20
2023-05-06T10:43:32.547Z,19.90
2023-05-06T10:46:00.910Z,12.53
2023-05-06T10:48:28.232Z,9.53
2023-05-06T10:51:10.359Z,9.03
2023-05-06T10:53:56.462Z,10.40
2023-05-06T10:56:25.122Z,8.97
2023-05-06T10:58:52.431Z,8.50
2023-05-06T11:01:21.791Z,11.50
2023-05-06T11:03:50.855Z,12.67
2023-05-06T11:06:32.309Z,8.40
2023-05-06T11:08:59.686Z,14.77
2023-05-06T11:11:45.501Z,9.23
2023-05-06T11:14:14.826Z,7.73
2023-05-06T11:16:47.641Z,14.27
2023-05-06T11:19:18.925Z,13.57
2023-05-06T11:21:46.405Z,9.37
2023-05-06T11:24:14.725Z,7.30
2023-05-06T11:26:42.238Z,11.63
2023-05-06T11:29:09.593Z,11.07
2023-05-06T11:31:41.930Z,9.47
2023-05-06T11:34:10.603Z,9.53
2023-05-06T11:36:38.168Z,11.70
2023-05-06T11:39:08.442Z,9.57
2023-05-06T11:41:39.142Z,6.83
2023-05-06T11:44:06.462Z,9.13
2023-05-06T11:46:34.608Z,7.87
2023-05-06T11:49:03.204Z,13.33
2023-05-06T11:51:30.466Z,11.53
2023-05-06T11:54:04.910Z,11.03
2023-05-06T11:56:32.161Z,13.40
2023-05-06T11:58:59.360Z,10.47
2023-05-06T12:01:26.810Z,13.07
2023-05-06T12:03:55.438Z,8.70
2023-05-06T12:06:34.558Z,10.10
2023-05-06T12:09:02.101Z,15.80
2023-05-06T12:11:32.012Z,9.23
2023-05-06T12:13:59.759Z,7.70
2023-05-06T12:16:28.710Z,9.07
2023-05-06T12:18:56.084Z,10.50
2023-05-06T12:21:23.820Z,9.80
2023-05-06T12:23:52.840Z,13.40
2023-05-06T12:26:20.145Z,9.87
2023-05-06T12:28:47.975Z,10.20
2023-05-06T12:31:18.894Z,8.63
2023-05-06T12:33:46.764Z,8.03
2023-05-06T12:36:14.030Z,10.00
2023-05-06T12:38:50.117Z,13.27
2023-05-06T12:41:19.146Z,8.00
2023-05-06T12:43:46.971Z,9.50
2023-05-06T12:46:15.482Z,9.43
2023-05-06T12:48:43.154Z,10.93
2023-05-06T12:51:19.740Z,10.83
2023-05-06T12:53:48.471Z,8.67
2023-05-06T12:56:15.818Z,10.53
2023-05-06T12:58:44.367Z,7.30
2023-05-06T13:01:11.638Z,9.93
2023-05-06T13:03:39.888Z,10.67
2023-05-06T13:06:09.628Z,9.50
2023-05-06T13:08:36.887Z,6.10
2023-05-06T13:11:04.140Z,6.37
2023-05-06T13:13:31.399Z,6.57
2023-05-06T13:16:00.049Z,6.30
2023-05-06T13:18:27.293Z,10.33
2023-05-06T13:20:54.627Z,9.30
2023-05-06T13:23:21.836Z,6.80
2023-05-06T13:26:03.650Z,8.97
2023-05-06T13:28:33.198Z,7.47
2023-05-06T13:31:01.903Z,12.83
2023-05-06T13:33:29.225Z,13.03
2023-05-06T13:35:56.522Z,8.23
2023-05-06T13:38:23.715Z,8.27
2023-05-06T13:40:52.080Z,7.27
2023-05-06T13:43:19.357Z,9.77
2023-05-06T13:45:46.608Z,12.77
2023-05-06T13:48:15.292Z,15.80
2023-05-06T13:50:42.753Z,12.77
2023-05-06T13:53:10.103Z,10.63
2023-05-06T13:55:37.409Z,12.43
2023-05-06T13:58:04.926Z,7.67
2023-05-06T14:00:32.465Z,6.67
2023-05-06T14:02:59.813Z,9.73
2023-05-06T14:05:28.733Z,9.77
2023-05-06T14:07:56.069Z,10.07
2023-05-06T14:10:23.353Z,11.93
2023-05-06T14:12:50.641Z,7.53
2023-05-06T14:15:17.946Z,14.53
2023-05-06T14:17:45.235Z,11.93
2023-05-06T14:20:12.660Z,8.20
2023-05-06T14:22:44.273Z,14.10
2023-05-06T14:25:11.995Z,17.03
2023-05-06T14:27:39.669Z,13.27
2023-05-06T14:30:09.456Z,14.00
2023-05-06T14:32:37.310Z,8.13
2023-05-06T14:35:04.950Z,9.40
2023-05-06T14:37:32.251Z,7.37
2023-05-06T14:40:00.854Z,6.67
2023-05-06T14:42:28.117Z,6.27
2023-05-06T14:44:55.408Z,7.80
2023-05-06T14:47:22.678Z,6.97
2023-05-06T14:49:49.915Z,5.43
2023-05-06T14:52:17.152Z,4.77
2023-05-06T14:54:44.489Z,4.07
2023-05-06T14:57:13.094Z,5.43
2023-05-06T14:59:40.430Z,4.07
2023-05-06T15:02:08.374Z,4.27
2023-05-06T15:04:35.845Z,4.47
2023-05-06T15:07:03.066Z,4.80
2023-05-06T15:09:30.376Z,5.37
2023-05-06T15:11:57.907Z,4.03
2023-05-06T15:14:26.596Z,5.83
2023-05-06T15:16:56.405Z,4.63
2023-05-06T15:19:23.790Z,3.53
2023-05-06T15:21:51.355Z,4.17
2023-05-06T15:24:18.614Z,3.63
2023-05-06T15:26:45.906Z,4.43
2023-05-06T15:29:13.420Z,4.30
2023-05-06T15:31:44.632Z,8.23
2023-05-06T15:34:12.502Z,5.17
2023-05-06T15:36:40.510Z,8.07
2023-05-06T15:39:08.147Z,7.07
2023-05-06T15:41:36.755Z,15.73
2023-05-06T15:44:06.055Z,13.60
2023-05-06T15:46:33.823Z,16.47
2023-05-06T15:49:31.878Z,13.83
2023-05-06T15:51:52.361Z,17.70
2023-05-06T15:54:22.632Z,19.90
2023-05-06T15:56:50.033Z,19.73
2023-05-06T15:59:17.270Z,19.53
2023-05-06T16:02:24.633Z,16.37
2023-05-06T16:04:33.501Z,15.53
2023-05-06T16:07:00.865Z,16.83
2023-05-06T16:09:28.161Z,16.80
2023-05-06T16:11:55.416Z,18.70
2023-05-06T16:14:23.895Z,18.80
2023-05-06T16:16:51.279Z,20.37
2023-05-06T16:19:18.558Z,16.23
2023-05-06T16:21:47.171Z,12.43
2023-05-06T16:24:14.486Z,17.77
2023-05-06T16:26:41.836Z,18.47
2023-05-06T16:29:09.069Z,16.47
2023-05-06T16:31:36.574Z,20.20
2023-05-06T16:34:03.925Z,17.50
2023-05-06T16:36:31.129Z,17.17
2023-05-06T16:38:59.818Z,15.83
2023-05-06T16:41:27.022Z,13.60
2023-05-06T16:43:54.534Z,12.93
2023-05-06T16:46:24.282Z,11.80
2023-05-06T16:48:51.907Z,13.20
2023-05-06T16:51:19.266Z,11.33
2023-05-06T16:53:46.710Z,13.03
2023-05-06T16:56:15.260Z,10.07
2023-05-06T16:58:42.685Z,12.57
2023-05-06T17:01:10.258Z,9.97
2023-05-06T17:03:37.744Z,12.70
2023-05-06T17:06:05.279Z,11.17
2023-05-06T17:08:36.066Z,11.27
2023-05-06T17:11:05.923Z,8.53
2023-05-06T17:13:34.552Z,9.13
2023-05-06T17:16:01.869Z,10.77
2023-05-06T17:18:29.092Z,10.57
2023-05-06T17:20:57.168Z,16.20
2023-05-06T17:23:24.876Z,16.13
2023-05-06T17:25:52.507Z,19.23
2023-05-06T17:28:19.753Z,15.13
2023-05-06T17:30:48.479Z,16.07
2023-05-06T17:33:15.756Z,21.17
2023-05-06T17:35:43.113Z,14.43
2023-05-06T17:38:11.750Z,17.90
2023-05-06T17:40:38.988Z,15.17
2023-05-06T17:43:06.200Z,12.70
2023-05-06T17:45:33.506Z,11.73
2023-05-06T17:48:02.205Z,15.70
2023-05-06T17:50:29.485Z,11.00
2023-05-06T17:52:56.786Z,13.90
2023-05-06T17:55:24.258Z,13.67
2023-05-06T17:57:51.493Z,16.27
2023-05-06T18:00:18.992Z,17.40
2023-05-06T18:02:46.261Z,18.20
2023-05-06T18:05:14.931Z,19.87
2023-05-06T18:07:42.183Z,19.30
2023-05-06T18:10:09.897Z,21.97
2023-05-06T18:12:37.386Z,21.97
2023-05-06T18:15:05.161Z,22.43
2023-05-06T18:17:32.467Z,26.23
2023-05-06T18:19:59.769Z,23.87
2023-05-06T18:22:28.378Z,25.00
2023-05-06T18:24:55.700Z,23.50
2023-05-06T18:27:23.065Z,28.47
2023-05-06T18:29:50.440Z,25.83
2023-05-06T18:32:18.441Z,21.07
2023-05-06T18:34:45.712Z,23.07
2023-05-06T18:37:13.003Z,26.27
2023-05-06T18:39:41.967Z,24.83
2023-05-06T18:42:09.437Z,25.50
2023-05-06T18:44:36.749Z,25.13
2023-05-06T18:47:04.005Z,24.97
2023-05-06T18:49:31.430Z,22.27
2023-05-06T18:51:58.777Z,27.67
2023-05-06T18:54:26.012Z,28.17
2023-05-06T18:56:55.031Z,25.30
2023-05-06T18:59:22.384Z,26.47
2023-05-06T19:01:49.593Z,23.40
2023-05-06T19:04:17.014Z,25.60
2023-05-06T19:06:44.253Z,26.10
2023-05-06T19:09:11.470Z,22.07
2023-05-06T19:11:38.790Z,21.67
2023-05-06T19:14:07.384Z,25.47
2023-05-06T19:16:34.682Z,22.57
2023-05-06T19:19:02.458Z,31.30
2023-05-06T19:21:29.834Z,26.80
2023-05-06T19:23:57.047Z,24.83
2023-05-06T19:26:24.254Z,27.13
2023-05-06T19:28:51.497Z,21.90
2023-05-06T19:31:20.243Z,27.63
2023-05-06T19:33:47.716Z,23.97
2023-05-06T19:36:15.082Z,24.27
2023-05-06T19:38:42.361Z,23.83
2023-05-06T19:41:09.594Z,24.00
2023-05-06T19:43:40.982Z,29.63
2023-05-06T19:46:08.329Z,27.10
2023-05-06T19:48:37.083Z,26.07
2023-05-06T19:51:04.392Z,31.87
2023-05-06T19:53:31.657Z,26.00
2023-05-06T19:55:59.086Z,23.37
2023-05-06T19:58:26.413Z,23.40
2023-05-06T20:00:53.666Z,24.57
2023-05-06T20:03:21.076Z,25.03
2023-05-06T20:05:49.852Z,29.60
2023-05-06T20:08:17.078Z,23.30
2023-05-06T20:10:44.273Z,30.20
2023-05-06T20:13:11.547Z,21.00
2023-05-06T20:15:38.855Z,25.77
2023-05-06T20:18:06.377Z,23.63
2023-05-06T20:20:33.857Z,24.73
2023-05-06T20:23:02.533Z,25.57
2023-05-06T20:25:29.935Z,20.23
2023-05-06T20:27:57.262Z,22.03
2023-05-06T20:30:24.507Z,26.40
2023-05-06T20:32:52.188Z,25.33
2023-05-06T20:35:19.601Z,23.00
2023-05-06T20:37:46.909Z,22.80
2023-05-06T20:40:15.797Z,28.43
2023-05-06T20:42:43.017Z,21.23
2023-05-06T20:45:10.773Z,23.20
2023-05-06T20:47:38.217Z,23.90
2023-05-06T20:50:05.924Z,22.80
2023-05-06T20:52:33.159Z,25.03
2023-05-06T20:55:00.449Z,22.87
2023-05-06T20:57:29.122Z,23.73
2023-05-06T20:59:56.377Z,17.70
2023-05-06T21:02:23.758Z,23.83
2023-05-06T21:04:51.085Z,21.97
2023-05-06T21:07:18.417Z,23.87
2023-05-06T21:09:45.593Z,24.07
2023-05-06T21:12:12.854Z,20.13
2023-05-06T21:14:41.521Z,24.63
2023-05-06T21:17:08.853Z,23.50
2023-05-06T21:19:36.471Z,25.07
2023-05-06T21:22:04.241Z,24.50
2023-05-06T21:24:31.620Z,24.40
2023-05-06T21:26:58.893Z,24.93
2023-05-06T21:29:26.172Z,21.43
2023-05-06T21:31:55.347Z,21.07
2023-05-06T21:34:22.838Z,18.53
2023-05-06T21:36:50.104Z,20.70
2023-05-06T21:39:17.400Z,20.10
2023-05-06T21:41:44.704Z,20.43
2023-05-06T21:44:12.007Z,20.70
2023-05-06T21:46:39.363Z,21.43
2023-05-06T21:49:07.963Z,22.47
2023-05-06T21:51:36.007Z,21.43
2023-05-06T21:54:03.624Z,18.97
2023-05-06T21:56:30.900Z,17.13
2023-05-06T21:58:58.107Z,18.23
2023-05-06T22:01:25.691Z,22.97
2023-05-06T22:03:53.081Z,17.37
2023-05-06T22:06:22.111Z,17.83
2023-05-06T22:08:49.378Z,19.57
2023-05-06T22:11:17.531Z,19.00
2023-05-06T22:13:44.847Z,19.83
2023-05-06T22:16:12.113Z,19.70
2023-05-06T22:18:39.351Z,18.30
2023-05-06T22:21:06.591Z,17.17
2023-05-06T22:23:35.203Z,21.80
2023-05-06T22:26:02.457Z,17.50
2023-05-06T22:28:29.735Z,16.73
2023-05-06T22:30:56.967Z,16.97
2023-05-06T22:33:24.259Z,20.30
2023-05-06T22:35:51.505Z,20.70
2023-05-06T22:38:18.783Z,21.17
2023-05-06T22:40:47.392Z,16.87
2023-05-06T22:43:14.641Z,20.07
2023-05-06T22:45:41.924Z,20.07
2023-05-06T22:48:09.379Z,22.97
2023-05-06T22:50:36.601Z,17.80
2023-05-06T22:53:13.548Z,18.53
2023-05-06T22:55:42.040Z,18.73
2023-05-06T22:58:10.653Z,20.27
2023-05-06T23:00:37.952Z,18.83
2023-05-06T23:03:05.325Z,21.37
2023-05-06T23:05:32.650Z,23.73
2023-05-06T23:07:59.957Z,21.97
2023-05-06T23:10:27.274Z,24.20
2023-05-06T23:12:54.543Z,23.90
2023-05-06T23:15:23.408Z,22.37
2023-05-06T23:17:50.778Z,23.67
2023-05-06T23:20:18.415Z,23.27
2023-05-06T23:22:45.661Z,25.33
2023-05-06T23:25:13.394Z,27.43
2023-05-06T23:27:41.126Z,25.83
2023-05-06T23:30:09.048Z,25.60
2023-05-06T23:32:38.114Z,23.90
2023-05-06T23:35:05.839Z,23.07
2023-05-06T23:37:33.121Z,26.27
2023-05-06T23:40:00.346Z,24.40
2023-05-06T23:42:27.703Z,25.17
2023-05-06T23:44:54.936Z,22.17
2023-05-06T23:47:22.393Z,20.70
2023-05-06T23:49:51.176Z,23.20
2023-05-06T23:52:18.479Z,22.20
2023-05-06T23:54:45.799Z,22.70
2023-05-06T23:57:13.010Z,19.10
2023-05-06T23:59:40.288Z,22.40
